createdAt,value
2023-05-11T00:01:17.150Z,12.03
2023-05-11T00:06:21.225Z,11.97
2023-05-11T00:11:23.951Z,11.90
2023-05-11T00:16:26.525Z,11.86
2023-05-11T00:21:30.513Z,11.86
2023-05-11T00:26:32.923Z,11.88
2023-05-11T00:31:35.906Z,11.88
2023-05-11T00:36:41.325Z,11.88
2023-05-11T00:41:43.944Z,11.94
2023-05-11T00:46:46.665Z,11.99
2023-05-11T00:51:51.803Z,12.10
2023-05-11T00:56:54.217Z,12.17
2023-05-11T01:01:56.816Z,12.20
2023-05-11T01:07:04.741Z,12.21
2023-05-11T01:12:11.487Z,12.25
2023-05-11T01:17:19.278Z,12.25
2023-05-11T01:22:29.816Z,12.20
2023-05-11T01:27:50.298Z,12.17
2023-05-11T01:32:55.459Z,12.10
2023-05-11T01:37:59.499Z,12.07
2023-05-11T01:43:03.320Z,12.04
2023-05-11T01:48:08.510Z,11.99
2023-05-11T01:53:11.717Z,11.97
2023-05-11T01:58:15.474Z,11.94
2023-05-11T02:03:20.429Z,11.95
2023-05-11T02:08:23.473Z,11.92
2023-05-11T02:13:28.524Z,11.95
2023-05-11T02:18:33.113Z,11.98
2023-05-11T02:23:35.748Z,11.97
2023-05-11T02:28:38.288Z,11.98
2023-05-11T02:33:44.707Z,11.96
2023-05-11T02:38:48.608Z,11.97
2023-05-11T02:43:52.623Z,12.00
2023-05-11T02:49:00.861Z,12.04
2023-05-11T02:54:04.830Z,12.09
2023-05-11T02:59:07.382Z,12.07
2023-05-11T03:04:11.165Z,12.08
2023-05-11T03:09:13.835Z,12.06
2023-05-11T03:14:16.472Z,12.03
2023-05-11T03:19:20.369Z,11.96
2023-05-11T03:24:23.162Z,11.90
2023-05-11T03:29:27.475Z,11.89
2023-05-11T03:34:31.371Z,11.88
2023-05-11T03:39:34.802Z,11.89
2023-05-11T03:44:38.719Z,11.94
2023-05-11T03:49:43.929Z,11.97
2023-05-11T03:54:46.524Z,11.98
2023-05-11T03:59:51.085Z,11.97
2023-05-11T04:04:54.968Z,11.69
2023-05-11T04:09:57.356Z,11.14
2023-05-11T04:14:59.930Z,10.93
2023-05-11T04:20:03.776Z,10.86
2023-05-11T04:25:06.718Z,10.87
2023-05-11T04:30:10.532Z,10.85
2023-05-11T04:35:14.573Z,10.80
2023-05-11T04:40:17.338Z,10.84
2023-05-11T04:45:20.140Z,10.97
2023-05-11T04:50:24.026Z,11.05
2023-05-11T04:55:26.973Z,11.19
2023-05-11T05:00:29.451Z,11.32
2023-05-11T05:05:33.353Z,11.38
2023-05-11T05:10:35.826Z,11.48
2023-05-11T05:15:38.345Z,11.53
2023-05-11T05:20:42.135Z,11.61
2023-05-11T05:25:44.575Z,11.72
2023-05-11T05:30:47.100Z,11.91
2023-05-11T05:35:51.025Z,12.02
2023-05-11T05:40:53.697Z,12.18
2023-05-11T05:45:56.260Z,12.26
2023-05-11T05:51:00.746Z,12.49
2023-05-11T05:56:03.283Z,12.83
2023-05-11T06:01:05.916Z,13.19
2023-05-11T06:06:09.758Z,13.37
2023-05-11T06:11:12.368Z,13.47
2023-05-11T06:16:14.962Z,13.45
2023-05-11T06:21:18.823Z,13.24
2023-05-11T06:26:21.351Z,13.25
2023-05-11T06:31:24.369Z,13.65
2023-05-11T06:36:29.333Z,14.84
2023-05-11T06:41:31.841Z,16.87
2023-05-11T06:46:34.389Z,19.24
2023-05-11T06:51:38.335Z,20.67
2023-05-11T06:56:40.959Z,20.31
2023-05-11T07:01:43.807Z,21.03
2023-05-11T07:06:47.827Z,21.52
2023-05-11T07:11:51.083Z,20.78
2023-05-11T07:16:53.597Z,20.68
2023-05-11T07:21:57.502Z,21.24
2023-05-11T07:27:00.798Z,21.53
2023-05-11T07:32:03.402Z,22.53
2023-05-11T07:37:08.263Z,23.61
2023-05-11T07:42:10.950Z,24.57
2023-05-11T07:47:13.599Z,24.79
2023-05-11T07:52:17.542Z,23.77
2023-05-11T07:57:20.594Z,23.77
2023-05-11T08:02:23.395Z,22.67
2023-05-11T08:07:27.243Z,21.74
2023-05-11T08:12:29.804Z,22.44
2023-05-11T08:17:32.585Z,21.17
2023-05-11T08:22:36.597Z,21.05
2023-05-11T08:27:39.010Z,21.86
2023-05-11T08:37:48.343Z,20.86
2023-05-11T08:42:54.721Z,23.15
2023-05-11T08:47:57.467Z,22.22
2023-05-11T08:53:01.378Z,22.88
2023-05-11T08:58:05.866Z,24.65
2023-05-11T09:03:08.600Z,25.00
2023-05-11T09:08:13.901Z,25.06
2023-05-11T09:13:16.589Z,24.45
2023-05-11T09:18:19.152Z,23.51
2023-05-11T09:23:25.721Z,22.50
2023-05-11T09:33:37.940Z,21.40
2023-05-11T09:38:41.828Z,20.91
2023-05-11T09:43:44.381Z,20.96
2023-05-11T09:48:46.859Z,22.17
2023-05-11T09:53:50.745Z,22.97
2023-05-11T09:58:54.900Z,22.58
2023-05-11T10:04:08.909Z,22.50
2023-05-11T10:09:25.847Z,21.77
2023-05-11T10:14:29.342Z,21.67
2023-05-11T10:19:32.900Z,21.36
2023-05-11T10:24:36.809Z,22.67
2023-05-11T10:29:39.460Z,22.24
2023-05-11T10:34:46.387Z,21.50
2023-05-11T10:39:51.053Z,22.40
2023-05-11T10:45:01.483Z,21.08
2023-05-11T10:50:14.778Z,20.32
2023-05-11T10:55:25.908Z,20.39
2023-05-11T11:00:54.120Z,19.82
2023-05-11T11:05:57.598Z,19.99
2023-05-11T11:11:04.923Z,20.05
2023-05-11T11:16:15.485Z,19.83
2023-05-11T11:21:33.868Z,20.10
2023-05-11T11:26:50.581Z,20.42
2023-05-11T11:31:53.257Z,20.49
2023-05-11T11:37:05.119Z,20.08
2023-05-11T11:42:09.577Z,19.88
2023-05-11T11:47:12.416Z,19.95
2023-05-11T11:52:15.367Z,19.96
2023-05-11T11:57:32.995Z,20.13
2023-05-11T12:02:40.901Z,19.54
2023-05-11T12:07:44.552Z,19.21
2023-05-11T12:12:47.439Z,19.01
2023-05-11T12:17:51.475Z,18.62
2023-05-11T12:22:54.030Z,17.86
2023-05-11T12:27:58.429Z,17.28
2023-05-11T12:33:04.408Z,17.00
2023-05-11T12:38:07.051Z,16.92
2023-05-11T12:43:09.565Z,16.98
2023-05-11T12:48:15.298Z,16.53
2023-05-11T12:53:19.123Z,16.15
2023-05-11T12:58:21.694Z,15.92
2023-05-11T13:03:26.486Z,15.70
2023-05-11T13:08:29.252Z,15.76
2023-05-11T13:13:32.505Z,15.65
2023-05-11T13:18:36.878Z,15.68
2023-05-11T13:23:39.494Z,15.81
2023-05-11T13:28:42.016Z,15.91
2023-05-11T13:33:46.475Z,15.91
2023-05-11T13:38:49.119Z,15.84
2023-05-11T13:43:51.661Z,15.93
2023-05-11T13:48:55.821Z,15.94
2023-05-11T13:53:59.373Z,15.84
2023-05-11T13:59:02.930Z,15.75
2023-05-11T14:04:06.990Z,15.77
2023-05-11T14:09:09.512Z,15.58
2023-05-11T14:14:12.119Z,15.59
2023-05-11T14:19:16.271Z,15.63
2023-05-11T14:24:18.824Z,15.46
2023-05-11T14:29:22.249Z,15.41
2023-05-11T14:34:26.482Z,15.48
2023-05-11T14:39:29.038Z,15.57
2023-05-11T14:44:32.253Z,15.81
2023-05-11T14:49:36.138Z,15.99
2023-05-11T14:54:38.690Z,16.21
2023-05-11T14:59:55.468Z,16.41
2023-05-11T15:05:03.226Z,16.64
2023-05-11T15:10:07.050Z,16.76
2023-05-11T15:15:10.036Z,16.76
2023-05-11T15:20:14.021Z,16.91
2023-05-11T15:25:16.869Z,16.87
2023-05-11T15:30:20.115Z,17.02
2023-05-11T15:35:23.950Z,17.10
2023-05-11T15:40:28.256Z,17.15
2023-05-11T15:45:30.845Z,17.06
2023-05-11T15:50:34.708Z,16.75
2023-05-11T15:55:39.055Z,16.64
2023-05-11T16:00:41.717Z,16.66
2023-05-11T16:05:45.584Z,16.46
2023-05-11T16:10:48.159Z,16.46
2023-05-11T16:15:50.706Z,16.50
2023-05-11T16:20:54.523Z,16.57
2023-05-11T16:25:58.310Z,16.45
2023-05-11T16:31:01.030Z,16.45
2023-05-11T16:36:05.469Z,16.28
2023-05-11T16:41:07.934Z,16.34
2023-05-11T16:46:10.661Z,16.14
2023-05-11T16:51:15.686Z,16.17
2023-05-11T16:56:18.135Z,16.07
2023-05-11T17:01:25.398Z,16.01
2023-05-11T17:06:29.582Z,15.94
2023-05-11T17:11:32.244Z,15.71
2023-05-11T17:16:34.739Z,15.51
2023-05-11T17:21:38.668Z,15.53
2023-05-11T17:26:48.058Z,15.62
2023-05-11T17:31:52.293Z,15.65
2023-05-11T17:36:57.009Z,15.55
2023-05-11T17:44:45.380Z,15.41
2023-05-11T17:49:47.920Z,15.27
2023-05-11T17:54:50.582Z,15.08
2023-05-11T17:59:54.579Z,14.87
2023-05-11T18:04:57.203Z,14.73
2023-05-11T18:10:00.062Z,14.45
2023-05-11T18:15:04.304Z,14.32
2023-05-11T18:20:08.484Z,14.20
2023-05-11T18:25:11.339Z,14.15
2023-05-11T18:30:15.951Z,14.09
2023-05-11T18:35:19.074Z,13.86
2023-05-11T18:40:22.418Z,13.67
2023-05-11T18:45:30.081Z,13.51
2023-05-11T18:50:32.658Z,13.44
2023-05-11T18:55:44.863Z,13.38
2023-05-11T19:00:56.285Z,13.34
2023-05-11T19:06:00.601Z,13.28
2023-05-11T19:11:07.880Z,13.23
2023-05-11T19:16:11.941Z,13.16
2023-05-11T19:21:14.582Z,13.09
2023-05-11T19:26:17.542Z,13.02
2023-05-11T19:31:22.760Z,12.97
2023-05-11T19:36:27.568Z,12.83
2023-05-11T19:41:30.352Z,12.69
2023-05-11T19:46:34.490Z,12.59
2023-05-11T19:51:37.111Z,12.56
2023-05-11T19:56:40.545Z,12.52
2023-05-11T20:01:44.578Z,12.51
2023-05-11T20:06:47.213Z,12.47
2023-05-11T20:11:49.980Z,12.40
2023-05-11T20:16:55.736Z,12.34
2023-05-11T20:21:58.565Z,12.34
2023-05-11T20:27:05.656Z,12.30
2023-05-11T20:32:09.953Z,12.29
2023-05-11T20:37:14.098Z,12.28
2023-05-11T20:42:17.189Z,12.29
2023-05-11T20:47:24.800Z,12.29
2023-05-11T20:52:27.467Z,12.29
2023-05-11T20:57:30.366Z,12.29
2023-05-11T21:02:34.696Z,12.28
2023-05-11T21:07:37.634Z,12.28
2023-05-11T21:12:40.264Z,12.27
2023-05-11T21:17:44.387Z,12.26
2023-05-11T21:22:47.456Z,12.27
2023-05-11T21:27:50.115Z,12.25
2023-05-11T21:32:54.243Z,12.24
2023-05-11T21:37:57.600Z,12.13
2023-05-11T21:43:00.030Z,12.09
2023-05-11T21:48:04.185Z,12.04
2023-05-11T21:53:07.097Z,12.01
2023-05-11T21:58:09.870Z,11.96
2023-05-11T22:03:13.973Z,11.97
2023-05-11T22:08:16.646Z,11.92
2023-05-11T22:13:19.284Z,11.89
2023-05-11T22:18:23.261Z,11.88
2023-05-11T22:23:26.029Z,11.81
2023-05-11T22:28:29.821Z,11.78
2023-05-11T22:33:33.724Z,11.73
2023-05-11T22:38:38.102Z,11.67
2023-05-11T22:43:40.654Z,11.68
2023-05-11T22:48:44.532Z,11.65
2023-05-11T22:53:48.275Z,11.57
2023-05-11T22:58:51.952Z,11.53
2023-05-11T23:03:55.980Z,11.47
2023-05-11T23:08:58.597Z,11.41
2023-05-11T23:14:01.480Z,11.35
2023-05-11T23:19:05.632Z,11.34
2023-05-11T23:24:08.461Z,11.30
2023-05-11T23:29:11.077Z,11.30
2023-05-11T23:34:15.250Z,11.33
2023-05-11T23:39:17.953Z,11.31
2023-05-11T23:44:20.629Z,11.34
2023-05-11T23:49:24.551Z,11.36
2023-05-11T23:54:27.151Z,11.35
2023-05-11T23:59:29.857Z,11.37
